sensor_id;sensor_type;location;lat;lon;timestamp;temperature;humidity
73750;SHT30;62058;48.406;-4.514;2023-06-26T00:00:18;18.85;71.25
73750;SHT30;62058;48.406;-4.514;2023-06-26T00:02:43;18.83;70.83
73750;SHT30;62058;48.406;-4.514;2023-06-26T00:05:08;18.82;70.73
73750;SHT30;62058;48.406;-4.514;2023-06-26T00:07:34;18.76;71.00
73750;SHT30;62058;48.406;-4.514;2023-06-26T00:10:00;18.73;71.05
73750;SHT30;62058;48.406;-4.514;2023-06-26T00:12:26;18.71;70.79
73750;SHT30;62058;48.406;-4.514;2023-06-26T00:14:52;18.66;72.19
73750;SHT30;62058;48.406;-4.514;2023-06-26T00:17:18;18.62;71.46
73750;SHT30;62058;48.406;-4.514;2023-06-26T00:19:43;18.56;71.78
73750;SHT30;62058;48.406;-4.514;2023-06-26T00:22:09;18.53;72.64
73750;SHT30;62058;48.406;-4.514;2023-06-26T00:24:34;18.47;72.95
73750;SHT30;62058;48.406;-4.514;2023-06-26T00:26:59;18.42;73.46
73750;SHT30;62058;48.406;-4.514;2023-06-26T00:29:25;18.39;72.70
73750;SHT30;62058;48.406;-4.514;2023-06-26T00:31:50;18.39;72.93
73750;SHT30;62058;48.406;-4.514;2023-06-26T00:34:15;18.39;73.02
73750;SHT30;62058;48.406;-4.514;2023-06-26T00:36:41;18.35;72.42
73750;SHT30;62058;48.406;-4.514;2023-06-26T00:39:10;18.38;71.97
73750;SHT30;62058;48.406;-4.514;2023-06-26T00:41:36;18.38;71.59
73750;SHT30;62058;48.406;-4.514;2023-06-26T00:44:03;18.38;72.25
73750;SHT30;62058;48.406;-4.514;2023-06-26T00:46:28;18.42;72.82
73750;SHT30;62058;48.406;-4.514;2023-06-26T00:48:55;18.41;71.92
73750;SHT30;62058;48.406;-4.514;2023-06-26T00:51:20;18.41;72.31
73750;SHT30;62058;48.406;-4.514;2023-06-26T00:53:47;18.32;72.49
73750;SHT30;62058;48.406;-4.514;2023-06-26T00:56:14;18.29;72.44
73750;SHT30;62058;48.406;-4.514;2023-06-26T00:58:40;18.27;73.00
73750;SHT30;62058;48.406;-4.514;2023-06-26T01:01:05;18.27;72.23
73750;SHT30;62058;48.406;-4.514;2023-06-26T01:03:33;18.25;73.19
73750;SHT30;62058;48.406;-4.514;2023-06-26T01:05:59;18.24;72.95
73750;SHT30;62058;48.406;-4.514;2023-06-26T01:08:26;18.19;73.62
73750;SHT30;62058;48.406;-4.514;2023-06-26T01:10:52;18.14;73.25
73750;SHT30;62058;48.406;-4.514;2023-06-26T01:13:17;18.07;73.43
73750;SHT30;62058;48.406;-4.514;2023-06-26T01:15:43;18.01;74.26
73750;SHT30;62058;48.406;-4.514;2023-06-26T01:18:09;18.02;72.60
73750;SHT30;62058;48.406;-4.514;2023-06-26T01:20:36;17.98;74.62
73750;SHT30;62058;48.406;-4.514;2023-06-26T01:23:22;17.94;74.74
73750;SHT30;62058;48.406;-4.514;2023-06-26T01:28:33;17.94;73.51
73750;SHT30;62058;48.406;-4.514;2023-06-26T01:31:00;17.91;74.66
73750;SHT30;62058;48.406;-4.514;2023-06-26T01:33:26;17.97;74.24
73750;SHT30;62058;48.406;-4.514;2023-06-26T01:35:52;17.94;74.68
73750;SHT30;62058;48.406;-4.514;2023-06-26T01:38:19;17.91;74.61
73750;SHT30;62058;48.406;-4.514;2023-06-26T01:40:45;17.91;74.31
73750;SHT30;62058;48.406;-4.514;2023-06-26T01:46:20;17.88;74.94
73750;SHT30;62058;48.406;-4.514;2023-06-26T01:51:41;17.88;74.83
73750;SHT30;62058;48.406;-4.514;2023-06-26T01:54:14;17.87;74.07
73750;SHT30;62058;48.406;-4.514;2023-06-26T01:56:43;17.88;74.80
73750;SHT30;62058;48.406;-4.514;2023-06-26T01:59:11;17.87;74.27
73750;SHT30;62058;48.406;-4.514;2023-06-26T02:01:39;17.88;74.21
73750;SHT30;62058;48.406;-4.514;2023-06-26T02:04:04;17.90;74.23
73750;SHT30;62058;48.406;-4.514;2023-06-26T02:06:30;17.88;74.24
73750;SHT30;62058;48.406;-4.514;2023-06-26T02:08:55;17.87;74.35
73750;SHT30;62058;48.406;-4.514;2023-06-26T02:11:22;17.87;74.60
73750;SHT30;62058;48.406;-4.514;2023-06-26T02:13:47;17.80;74.56
73750;SHT30;62058;48.406;-4.514;2023-06-26T02:16:13;17.81;74.32
73750;SHT30;62058;48.406;-4.514;2023-06-26T02:18:39;17.80;72.58
73750;SHT30;62058;48.406;-4.514;2023-06-26T02:21:06;17.76;73.25
73750;SHT30;62058;48.406;-4.514;2023-06-26T02:23:31;17.73;72.79
73750;SHT30;62058;48.406;-4.514;2023-06-26T02:25:57;17.69;72.85
73750;SHT30;62058;48.406;-4.514;2023-06-26T02:28:22;17.70;74.23
73750;SHT30;62058;48.406;-4.514;2023-06-26T02:30:48;17.67;73.26
73750;SHT30;62058;48.406;-4.514;2023-06-26T02:33:13;17.67;72.81
73750;SHT30;62058;48.406;-4.514;2023-06-26T02:35:38;17.63;73.08
73750;SHT30;62058;48.406;-4.514;2023-06-26T02:38:04;17.62;74.04
73750;SHT30;62058;48.406;-4.514;2023-06-26T02:40:29;17.59;73.99
73750;SHT30;62058;48.406;-4.514;2023-06-26T02:42:55;17.59;73.22
73750;SHT30;62058;48.406;-4.514;2023-06-26T02:45:20;17.59;75.06
73750;SHT30;62058;48.406;-4.514;2023-06-26T02:47:45;17.56;73.07
73750;SHT30;62058;48.406;-4.514;2023-06-26T02:50:11;17.56;73.02
73750;SHT30;62058;48.406;-4.514;2023-06-26T02:52:36;17.51;74.54
73750;SHT30;62058;48.406;-4.514;2023-06-26T02:55:02;17.46;75.47
73750;SHT30;62058;48.406;-4.514;2023-06-26T02:57:28;17.42;75.10
73750;SHT30;62058;48.406;-4.514;2023-06-26T02:59:53;17.36;76.26
73750;SHT30;62058;48.406;-4.514;2023-06-26T03:02:19;17.33;76.24
73750;SHT30;62058;48.406;-4.514;2023-06-26T03:04:44;17.30;74.58
73750;SHT30;62058;48.406;-4.514;2023-06-26T03:07:09;17.32;74.21
73750;SHT30;62058;48.406;-4.514;2023-06-26T03:09:35;17.30;73.95
73750;SHT30;62058;48.406;-4.514;2023-06-26T03:12:00;17.27;74.06
73750;SHT30;62058;48.406;-4.514;2023-06-26T03:14:26;17.26;74.73
73750;SHT30;62058;48.406;-4.514;2023-06-26T03:16:55;17.22;76.14
73750;SHT30;62058;48.406;-4.514;2023-06-26T03:19:24;17.23;74.16
73750;SHT30;62058;48.406;-4.514;2023-06-26T03:21:49;17.23;75.05
73750;SHT30;62058;48.406;-4.514;2023-06-26T03:24:15;17.16;74.52
73750;SHT30;62058;48.406;-4.514;2023-06-26T03:26:40;17.15;75.41
73750;SHT30;62058;48.406;-4.514;2023-06-26T03:29:05;17.11;75.78
73750;SHT30;62058;48.406;-4.514;2023-06-26T03:31:31;17.11;74.77
73750;SHT30;62058;48.406;-4.514;2023-06-26T03:33:56;17.11;75.33
73750;SHT30;62058;48.406;-4.514;2023-06-26T03:36:22;17.11;75.83
73750;SHT30;62058;48.406;-4.514;2023-06-26T03:38:47;17.05;75.41
73750;SHT30;62058;48.406;-4.514;2023-06-26T03:41:12;17.06;75.35
73750;SHT30;62058;48.406;-4.514;2023-06-26T03:43:38;17.04;75.65
73750;SHT30;62058;48.406;-4.514;2023-06-26T03:46:03;17.04;75.84
73750;SHT30;62058;48.406;-4.514;2023-06-26T03:48:29;17.02;76.19
73750;SHT30;62058;48.406;-4.514;2023-06-26T03:50:54;16.99;75.99
73750;SHT30;62058;48.406;-4.514;2023-06-26T03:53:20;16.96;76.35
73750;SHT30;62058;48.406;-4.514;2023-06-26T03:55:45;16.94;76.30
73750;SHT30;62058;48.406;-4.514;2023-06-26T03:58:10;16.89;75.95
73750;SHT30;62058;48.406;-4.514;2023-06-26T04:00:36;16.89;76.83
73750;SHT30;62058;48.406;-4.514;2023-06-26T04:03:01;16.88;76.72
73750;SHT30;62058;48.406;-4.514;2023-06-26T04:05:27;16.86;76.48
73750;SHT30;62058;48.406;-4.514;2023-06-26T04:07:53;16.86;76.98
73750;SHT30;62058;48.406;-4.514;2023-06-26T04:10:19;16.86;76.25
73750;SHT30;62058;48.406;-4.514;2023-06-26T04:12:46;16.88;76.58
73750;SHT30;62058;48.406;-4.514;2023-06-26T04:15:11;16.86;76.50
73750;SHT30;62058;48.406;-4.514;2023-06-26T04:17:37;16.88;76.49
73750;SHT30;62058;48.406;-4.514;2023-06-26T04:20:02;16.85;76.68
73750;SHT30;62058;48.406;-4.514;2023-06-26T04:22:32;16.88;76.68
73750;SHT30;62058;48.406;-4.514;2023-06-26T04:24:57;16.88;76.00
73750;SHT30;62058;48.406;-4.514;2023-06-26T04:27:22;16.86;75.92
73750;SHT30;62058;48.406;-4.514;2023-06-26T04:29:48;16.84;76.12
73750;SHT30;62058;48.406;-4.514;2023-06-26T04:32:13;16.86;76.25
73750;SHT30;62058;48.406;-4.514;2023-06-26T04:34:38;16.84;76.10
73750;SHT30;62058;48.406;-4.514;2023-06-26T04:37:06;16.85;75.79
73750;SHT30;62058;48.406;-4.514;2023-06-26T04:39:31;16.84;75.97
73750;SHT30;62058;48.406;-4.514;2023-06-26T04:41:57;16.85;75.96
73750;SHT30;62058;48.406;-4.514;2023-06-26T04:44:22;16.85;75.84
73750;SHT30;62058;48.406;-4.514;2023-06-26T04:46:47;16.84;75.49
73750;SHT30;62058;48.406;-4.514;2023-06-26T04:49:13;16.88;75.57
73750;SHT30;62058;48.406;-4.514;2023-06-26T04:51:42;16.88;75.66
73750;SHT30;62058;48.406;-4.514;2023-06-26T04:54:11;16.88;75.56
73750;SHT30;62058;48.406;-4.514;2023-06-26T04:56:37;16.91;75.79
73750;SHT30;62058;48.406;-4.514;2023-06-26T04:59:02;16.92;75.53
73750;SHT30;62058;48.406;-4.514;2023-06-26T05:01:28;16.95;75.74
73750;SHT30;62058;48.406;-4.514;2023-06-26T05:03:58;16.96;75.68
73750;SHT30;62058;48.406;-4.514;2023-06-26T05:06:23;16.98;75.54
73750;SHT30;62058;48.406;-4.514;2023-06-26T05:08:49;17.01;75.39
73750;SHT30;62058;48.406;-4.514;2023-06-26T05:11:14;17.06;74.77
73750;SHT30;62058;48.406;-4.514;2023-06-26T05:13:40;17.06;75.32
73750;SHT30;62058;48.406;-4.514;2023-06-26T05:16:05;17.06;75.58
73750;SHT30;62058;48.406;-4.514;2023-06-26T05:18:31;17.08;75.37
73750;SHT30;62058;48.406;-4.514;2023-06-26T05:20:56;17.11;75.42
73750;SHT30;62058;48.406;-4.514;2023-06-26T05:23:25;17.13;74.84
73750;SHT30;62058;48.406;-4.514;2023-06-26T05:25:51;17.16;74.87
73750;SHT30;62058;48.406;-4.514;2023-06-26T05:28:16;17.25;74.63
73750;SHT30;62058;48.406;-4.514;2023-06-26T05:30:42;17.33;74.42
73750;SHT30;62058;48.406;-4.514;2023-06-26T05:33:10;17.37;74.40
73750;SHT30;62058;48.406;-4.514;2023-06-26T05:35:36;17.43;74.35
73750;SHT30;62058;48.406;-4.514;2023-06-26T05:38:01;17.46;74.06
73750;SHT30;62058;48.406;-4.514;2023-06-26T05:40:27;17.53;74.10
73750;SHT30;62058;48.406;-4.514;2023-06-26T05:42:53;17.57;73.91
73750;SHT30;62058;48.406;-4.514;2023-06-26T05:45:18;17.62;72.90
73750;SHT30;62058;48.406;-4.514;2023-06-26T05:47:44;17.66;72.67
73750;SHT30;62058;48.406;-4.514;2023-06-26T05:50:10;17.71;74.18
73750;SHT30;62058;48.406;-4.514;2023-06-26T05:52:36;17.67;74.18
73750;SHT30;62058;48.406;-4.514;2023-06-26T05:55:02;17.71;73.99
73750;SHT30;62058;48.406;-4.514;2023-06-26T05:57:29;17.77;73.82
73750;SHT30;62058;48.406;-4.514;2023-06-26T05:59:55;17.90;73.46
73750;SHT30;62058;48.406;-4.514;2023-06-26T06:02:21;18.02;73.14
73750;SHT30;62058;48.406;-4.514;2023-06-26T06:04:46;18.10;72.05
73750;SHT30;62058;48.406;-4.514;2023-06-26T06:07:12;18.18;72.04
73750;SHT30;62058;48.406;-4.514;2023-06-26T06:09:37;18.24;72.35
73750;SHT30;62058;48.406;-4.514;2023-06-26T06:12:06;18.27;72.68
73750;SHT30;62058;48.406;-4.514;2023-06-26T06:14:33;18.28;72.20
73750;SHT30;62058;48.406;-4.514;2023-06-26T06:16:59;18.29;72.32
73750;SHT30;62058;48.406;-4.514;2023-06-26T06:19:24;18.37;72.53
73750;SHT30;62058;48.406;-4.514;2023-06-26T06:21:49;18.41;73.06
73750;SHT30;62058;48.406;-4.514;2023-06-26T06:24:15;18.48;72.96
73750;SHT30;62058;48.406;-4.514;2023-06-26T06:26:40;18.53;73.06
73750;SHT30;62058;48.406;-4.514;2023-06-26T06:29:06;18.59;73.06
73750;SHT30;62058;48.406;-4.514;2023-06-26T06:31:31;18.63;73.05
73750;SHT30;62058;48.406;-4.514;2023-06-26T06:33:57;18.73;73.26
73750;SHT30;62058;48.406;-4.514;2023-06-26T06:36:22;18.76;73.37
73750;SHT30;62058;48.406;-4.514;2023-06-26T06:38:48;18.80;73.33
73750;SHT30;62058;48.406;-4.514;2023-06-26T06:41:13;18.85;73.18
73750;SHT30;62058;48.406;-4.514;2023-06-26T06:43:38;18.95;73.31
73750;SHT30;62058;48.406;-4.514;2023-06-26T06:46:04;19.02;73.03
73750;SHT30;62058;48.406;-4.514;2023-06-26T06:48:31;19.12;73.03
73750;SHT30;62058;48.406;-4.514;2023-06-26T06:50:56;19.22;71.86
73750;SHT30;62058;48.406;-4.514;2023-06-26T06:53:21;19.33;71.98
73750;SHT30;62058;48.406;-4.514;2023-06-26T06:55:48;19.38;71.88
73750;SHT30;62058;48.406;-4.514;2023-06-26T06:58:13;19.44;71.56
73750;SHT30;62058;48.406;-4.514;2023-06-26T07:00:39;19.54;71.35
73750;SHT30;62058;48.406;-4.514;2023-06-26T07:03:04;19.57;71.23
73750;SHT30;62058;48.406;-4.514;2023-06-26T07:05:29;19.63;71.31
73750;SHT30;62058;48.406;-4.514;2023-06-26T07:07:55;19.70;71.16
73750;SHT30;62058;48.406;-4.514;2023-06-26T07:10:21;19.77;71.38
73750;SHT30;62058;48.406;-4.514;2023-06-26T07:12:46;19.82;71.12
73750;SHT30;62058;48.406;-4.514;2023-06-26T07:15:12;19.88;70.42
73750;SHT30;62058;48.406;-4.514;2023-06-26T07:17:37;19.88;70.14
73750;SHT30;62058;48.406;-4.514;2023-06-26T07:20:04;19.91;69.51
73750;SHT30;62058;48.406;-4.514;2023-06-26T07:22:31;19.99;69.04
73750;SHT30;62058;48.406;-4.514;2023-06-26T07:24:57;20.05;68.65
73750;SHT30;62058;48.406;-4.514;2023-06-26T07:27:22;20.16;68.41
73750;SHT30;62058;48.406;-4.514;2023-06-26T07:29:47;20.22;67.67
73750;SHT30;62058;48.406;-4.514;2023-06-26T07:32:13;20.22;67.59
73750;SHT30;62058;48.406;-4.514;2023-06-26T07:34:38;20.25;67.87
73750;SHT30;62058;48.406;-4.514;2023-06-26T07:37:04;20.24;67.68
73750;SHT30;62058;48.406;-4.514;2023-06-26T07:39:29;20.28;67.76
73750;SHT30;62058;48.406;-4.514;2023-06-26T07:41:55;20.25;67.20
73750;SHT30;62058;48.406;-4.514;2023-06-26T07:44:21;20.21;67.21
73750;SHT30;62058;48.406;-4.514;2023-06-26T07:46:46;20.25;66.17
73750;SHT30;62058;48.406;-4.514;2023-06-26T07:49:12;20.21;66.42
73750;SHT30;62058;48.406;-4.514;2023-06-26T07:51:37;20.18;66.52
73750;SHT30;62058;48.406;-4.514;2023-06-26T07:54:03;20.32;65.90
73750;SHT30;62058;48.406;-4.514;2023-06-26T07:56:28;20.47;65.35
73750;SHT30;62058;48.406;-4.514;2023-06-26T07:58:54;20.62;65.30
73750;SHT30;62058;48.406;-4.514;2023-06-26T08:01:19;20.75;64.49
73750;SHT30;62058;48.406;-4.514;2023-06-26T08:03:45;20.86;63.97
73750;SHT30;62058;48.406;-4.514;2023-06-26T08:06:10;20.83;63.62
73750;SHT30;62058;48.406;-4.514;2023-06-26T08:08:35;20.83;63.45
73750;SHT30;62058;48.406;-4.514;2023-06-26T08:11:01;20.93;63.34
73750;SHT30;62058;48.406;-4.514;2023-06-26T08:13:26;20.96;63.22
73750;SHT30;62058;48.406;-4.514;2023-06-26T08:15:51;21.14;62.33
73750;SHT30;62058;48.406;-4.514;2023-06-26T08:18:18;21.31;62.81
73750;SHT30;62058;48.406;-4.514;2023-06-26T08:20:43;21.48;62.40
73750;SHT30;62058;48.406;-4.514;2023-06-26T08:23:08;21.41;62.61
73750;SHT30;62058;48.406;-4.514;2023-06-26T08:25:34;21.50;62.29
73750;SHT30;62058;48.406;-4.514;2023-06-26T08:27:59;21.71;61.94
73750;SHT30;62058;48.406;-4.514;2023-06-26T08:30:24;21.88;61.57
73750;SHT30;62058;48.406;-4.514;2023-06-26T08:32:56;22.09;61.18
73750;SHT30;62058;48.406;-4.514;2023-06-26T08:35:21;22.22;61.30
73750;SHT30;62058;48.406;-4.514;2023-06-26T08:37:47;22.28;60.82
73750;SHT30;62058;48.406;-4.514;2023-06-26T08:40:12;22.06;59.47
73750;SHT30;62058;48.406;-4.514;2023-06-26T08:42:41;21.83;57.86
73750;SHT30;62058;48.406;-4.514;2023-06-26T08:45:07;21.68;59.29
73750;SHT30;62058;48.406;-4.514;2023-06-26T08:47:34;21.54;60.00
73750;SHT30;62058;48.406;-4.514;2023-06-26T08:50:10;21.52;60.43
73750;SHT30;62058;48.406;-4.514;2023-06-26T08:52:43;21.68;60.30
73750;SHT30;62058;48.406;-4.514;2023-06-26T08:55:12;21.83;59.32
73750;SHT30;62058;48.406;-4.514;2023-06-26T08:57:40;21.92;59.21
73750;SHT30;62058;48.406;-4.514;2023-06-26T09:00:06;22.08;59.60
73750;SHT30;62058;48.406;-4.514;2023-06-26T09:02:35;22.29;58.98
73750;SHT30;62058;48.406;-4.514;2023-06-26T09:05:01;22.36;59.47
73750;SHT30;62058;48.406;-4.514;2023-06-26T09:07:27;22.54;59.35
73750;SHT30;62058;48.406;-4.514;2023-06-26T09:09:52;22.67;59.44
73750;SHT30;62058;48.406;-4.514;2023-06-26T09:12:18;22.67;60.33
73750;SHT30;62058;48.406;-4.514;2023-06-26T09:14:45;22.46;60.79
73750;SHT30;62058;48.406;-4.514;2023-06-26T09:17:13;22.50;60.68
73750;SHT30;62058;48.406;-4.514;2023-06-26T09:19:38;22.52;60.53
73750;SHT30;62058;48.406;-4.514;2023-06-26T09:22:03;22.52;60.23
73750;SHT30;62058;48.406;-4.514;2023-06-26T09:24:30;22.40;60.64
73750;SHT30;62058;48.406;-4.514;2023-06-26T09:26:55;22.37;60.33
73750;SHT30;62058;48.406;-4.514;2023-06-26T09:29:21;22.30;60.71
73750;SHT30;62058;48.406;-4.514;2023-06-26T09:31:47;22.26;60.65
73750;SHT30;62058;48.406;-4.514;2023-06-26T09:34:12;22.39;60.52
73750;SHT30;62058;48.406;-4.514;2023-06-26T09:36:38;22.66;59.64
73750;SHT30;62058;48.406;-4.514;2023-06-26T09:39:06;22.73;58.73
73750;SHT30;62058;48.406;-4.514;2023-06-26T09:41:36;22.93;59.23
73750;SHT30;62058;48.406;-4.514;2023-06-26T09:44:05;22.90;57.49
73750;SHT30;62058;48.406;-4.514;2023-06-26T09:46:31;22.90;57.66
73750;SHT30;62058;48.406;-4.514;2023-06-26T09:49:02;22.78;57.83
73750;SHT30;62058;48.406;-4.514;2023-06-26T09:51:32;22.57;57.70
73750;SHT30;62058;48.406;-4.514;2023-06-26T09:54:02;22.54;56.88
73750;SHT30;62058;48.406;-4.514;2023-06-26T09:56:29;22.50;57.89
73750;SHT30;62058;48.406;-4.514;2023-06-26T09:58:59;22.61;57.83
73750;SHT30;62058;48.406;-4.514;2023-06-26T10:01:27;22.71;56.97
73750;SHT30;62058;48.406;-4.514;2023-06-26T10:03:53;22.84;56.92
73750;SHT30;62058;48.406;-4.514;2023-06-26T10:06:22;22.87;56.54
73750;SHT30;62058;48.406;-4.514;2023-06-26T10:08:50;22.83;56.70
73750;SHT30;62058;48.406;-4.514;2023-06-26T10:11:19;22.74;55.46
73750;SHT30;62058;48.406;-4.514;2023-06-26T10:13:50;22.71;55.32
73750;SHT30;62058;48.406;-4.514;2023-06-26T10:16:22;22.84;55.47
73750;SHT30;62058;48.406;-4.514;2023-06-26T10:18:52;23.07;55.03
73750;SHT30;62058;48.406;-4.514;2023-06-26T10:21:20;23.15;54.37
73750;SHT30;62058;48.406;-4.514;2023-06-26T10:23:48;23.18;54.79
73750;SHT30;62058;48.406;-4.514;2023-06-26T10:26:14;23.21;55.08
73750;SHT30;62058;48.406;-4.514;2023-06-26T10:28:41;23.37;54.52
73750;SHT30;62058;48.406;-4.514;2023-06-26T10:31:09;23.42;53.97
73750;SHT30;62058;48.406;-4.514;2023-06-26T10:33:36;23.29;53.82
73750;SHT30;62058;48.406;-4.514;2023-06-26T10:36:18;23.24;54.48
73750;SHT30;62058;48.406;-4.514;2023-06-26T10:38:57;23.35;54.49
73750;SHT30;62058;48.406;-4.514;2023-06-26T10:41:24;23.27;53.69
73750;SHT30;62058;48.406;-4.514;2023-06-26T10:44:09;23.29;51.97
73750;SHT30;62058;48.406;-4.514;2023-06-26T10:49:25;23.32;52.20
73750;SHT30;62058;48.406;-4.514;2023-06-26T10:51:51;23.32;51.53
73750;SHT30;62058;48.406;-4.514;2023-06-26T10:54:20;23.29;52.27
73750;SHT30;62058;48.406;-4.514;2023-06-26T10:56:49;23.34;52.09
73750;SHT30;62058;48.406;-4.514;2023-06-26T10:59:17;23.42;52.42
73750;SHT30;62058;48.406;-4.514;2023-06-26T11:01:45;23.39;53.07
73750;SHT30;62058;48.406;-4.514;2023-06-26T11:04:13;23.59;50.09
73750;SHT30;62058;48.406;-4.514;2023-06-26T11:06:40;23.63;50.41
73750;SHT30;62058;48.406;-4.514;2023-06-26T11:09:10;23.73;50.80
73750;SHT30;62058;48.406;-4.514;2023-06-26T11:14:21;23.86;50.21
73750;SHT30;62058;48.406;-4.514;2023-06-26T11:16:47;23.95;49.71
73750;SHT30;62058;48.406;-4.514;2023-06-26T11:19:14;24.13;50.17
73750;SHT30;62058;48.406;-4.514;2023-06-26T11:21:40;24.19;50.21
73750;SHT30;62058;48.406;-4.514;2023-06-26T11:24:09;24.27;50.93
73750;SHT30;62058;48.406;-4.514;2023-06-26T11:26:39;24.34;51.32
73750;SHT30;62058;48.406;-4.514;2023-06-26T11:29:05;24.64;51.34
73750;SHT30;62058;48.406;-4.514;2023-06-26T11:31:35;24.88;50.12
73750;SHT30;62058;48.406;-4.514;2023-06-26T11:34:04;25.16;49.73
73750;SHT30;62058;48.406;-4.514;2023-06-26T11:36:31;25.42;50.02
73750;SHT30;62058;48.406;-4.514;2023-06-26T11:38:58;25.42;48.38
73750;SHT30;62058;48.406;-4.514;2023-06-26T11:41:28;25.45;48.89
73750;SHT30;62058;48.406;-4.514;2023-06-26T11:43:54;25.50;48.25
73750;SHT30;62058;48.406;-4.514;2023-06-26T11:46:21;25.69;48.68
73750;SHT30;62058;48.406;-4.514;2023-06-26T11:48:47;25.79;49.00
73750;SHT30;62058;48.406;-4.514;2023-06-26T11:51:13;25.72;48.99
73750;SHT30;62058;48.406;-4.514;2023-06-26T11:53:43;25.56;48.98
73750;SHT30;62058;48.406;-4.514;2023-06-26T11:56:13;25.49;49.15
73750;SHT30;62058;48.406;-4.514;2023-06-26T11:58:58;25.53;49.00
73750;SHT30;62058;48.406;-4.514;2023-06-26T12:01:26;25.92;49.03
73750;SHT30;62058;48.406;-4.514;2023-06-26T12:03:57;26.17;48.29
73750;SHT30;62058;48.406;-4.514;2023-06-26T12:06:23;25.96;48.82
73750;SHT30;62058;48.406;-4.514;2023-06-26T12:08:48;26.31;48.64
73750;SHT30;62058;48.406;-4.514;2023-06-26T12:11:14;26.54;47.56
73750;SHT30;62058;48.406;-4.514;2023-06-26T12:13:39;26.58;47.21
73750;SHT30;62058;48.406;-4.514;2023-06-26T12:16:05;26.74;48.42
73750;SHT30;62058;48.406;-4.514;2023-06-26T12:18:39;26.84;48.66
73750;SHT30;62058;48.406;-4.514;2023-06-26T12:21:05;26.85;48.65
73750;SHT30;62058;48.406;-4.514;2023-06-26T12:23:38;26.62;48.27
73750;SHT30;62058;48.406;-4.514;2023-06-26T12:26:20;26.38;48.11
73750;SHT30;62058;48.406;-4.514;2023-06-26T12:28:47;26.40;48.11
73750;SHT30;62058;48.406;-4.514;2023-06-26T12:31:16;26.34;48.98
73750;SHT30;62058;48.406;-4.514;2023-06-26T12:33:44;26.47;48.54
73750;SHT30;62058;48.406;-4.514;2023-06-26T12:36:13;26.36;49.46
73750;SHT30;62058;48.406;-4.514;2023-06-26T12:38:40;26.47;48.50
73750;SHT30;62058;48.406;-4.514;2023-06-26T12:41:14;26.37;48.52
73750;SHT30;62058;48.406;-4.514;2023-06-26T12:43:40;26.36;48.51
73750;SHT30;62058;48.406;-4.514;2023-06-26T12:46:06;26.41;48.36
73750;SHT30;62058;48.406;-4.514;2023-06-26T12:48:44;26.51;48.59
73750;SHT30;62058;48.406;-4.514;2023-06-26T12:51:16;26.65;48.28
73750;SHT30;62058;48.406;-4.514;2023-06-26T12:53:41;26.92;47.79
73750;SHT30;62058;48.406;-4.514;2023-06-26T12:56:08;27.26;47.57
73750;SHT30;62058;48.406;-4.514;2023-06-26T12:58:35;27.43;47.56
73750;SHT30;62058;48.406;-4.514;2023-06-26T13:01:05;27.83;46.29
73750;SHT30;62058;48.406;-4.514;2023-06-26T13:03:32;27.90;46.63
73750;SHT30;62058;48.406;-4.514;2023-06-26T13:05:58;28.14;45.51
73750;SHT30;62058;48.406;-4.514;2023-06-26T13:08:23;28.14;45.51
73750;SHT30;62058;48.406;-4.514;2023-06-26T13:10:48;28.34;45.42
73750;SHT30;62058;48.406;-4.514;2023-06-26T13:13:14;28.54;44.50
73750;SHT30;62058;48.406;-4.514;2023-06-26T13:15:39;28.15;45.10
73750;SHT30;62058;48.406;-4.514;2023-06-26T13:18:05;28.04;45.56
73750;SHT30;62058;48.406;-4.514;2023-06-26T13:20:30;28.31;45.34
73750;SHT30;62058;48.406;-4.514;2023-06-26T13:22:55;28.52;45.09
73750;SHT30;62058;48.406;-4.514;2023-06-26T13:25:21;28.92;44.46
73750;SHT30;62058;48.406;-4.514;2023-06-26T13:27:48;29.22;44.74
73750;SHT30;62058;48.406;-4.514;2023-06-26T13:30:14;29.17;45.01
73750;SHT30;62058;48.406;-4.514;2023-06-26T13:32:40;28.98;45.28
73750;SHT30;62058;48.406;-4.514;2023-06-26T13:35:06;28.79;44.72
73750;SHT30;62058;48.406;-4.514;2023-06-26T13:37:32;28.89;45.61
73750;SHT30;62058;48.406;-4.514;2023-06-26T13:39:59;28.21;46.73
73750;SHT30;62058;48.406;-4.514;2023-06-26T13:42:25;27.66;47.55
73750;SHT30;62058;48.406;-4.514;2023-06-26T13:44:50;27.60;48.07
73750;SHT30;62058;48.406;-4.514;2023-06-26T13:47:16;27.52;47.94
73750;SHT30;62058;48.406;-4.514;2023-06-26T13:49:41;27.59;47.85
73750;SHT30;62058;48.406;-4.514;2023-06-26T13:52:07;27.87;46.33
73750;SHT30;62058;48.406;-4.514;2023-06-26T13:54:37;27.97;46.96
73750;SHT30;62058;48.406;-4.514;2023-06-26T13:57:07;28.41;46.38
73750;SHT30;62058;48.406;-4.514;2023-06-26T13:59:33;28.42;46.36
73750;SHT30;62058;48.406;-4.514;2023-06-26T14:01:59;28.35;44.91
73750;SHT30;62058;48.406;-4.514;2023-06-26T14:04:25;28.10;45.82
73750;SHT30;62058;48.406;-4.514;2023-06-26T14:06:50;28.18;45.97
73750;SHT30;62058;48.406;-4.514;2023-06-26T14:09:16;28.22;45.80
73750;SHT30;62058;48.406;-4.514;2023-06-26T14:11:41;28.21;45.79
73750;SHT30;62058;48.406;-4.514;2023-06-26T14:14:07;28.61;45.84
73750;SHT30;62058;48.406;-4.514;2023-06-26T14:16:32;29.12;44.86
73750;SHT30;62058;48.406;-4.514;2023-06-26T14:18:58;29.74;44.31
73750;SHT30;62058;48.406;-4.514;2023-06-26T14:21:23;30.08;43.28
73750;SHT30;62058;48.406;-4.514;2023-06-26T14:23:49;30.22;43.02
73750;SHT30;62058;48.406;-4.514;2023-06-26T14:26:14;30.19;42.33
73750;SHT30;62058;48.406;-4.514;2023-06-26T14:28:40;30.11;43.02
73750;SHT30;62058;48.406;-4.514;2023-06-26T14:31:06;30.07;43.19
73750;SHT30;62058;48.406;-4.514;2023-06-26T14:33:31;30.07;42.95
73750;SHT30;62058;48.406;-4.514;2023-06-26T14:35:56;30.58;42.27
73750;SHT30;62058;48.406;-4.514;2023-06-26T14:38:22;30.83;42.61
73750;SHT30;62058;48.406;-4.514;2023-06-26T14:40:47;30.96;41.83
73750;SHT30;62058;48.406;-4.514;2023-06-26T14:43:13;31.03;42.45
73750;SHT30;62058;48.406;-4.514;2023-06-26T14:45:38;30.78;41.71
73750;SHT30;62058;48.406;-4.514;2023-06-26T14:48:03;30.94;41.46
73750;SHT30;62058;48.406;-4.514;2023-06-26T14:50:29;31.17;41.28
73750;SHT30;62058;48.406;-4.514;2023-06-26T14:52:54;31.54;40.05
73750;SHT30;62058;48.406;-4.514;2023-06-26T14:55:20;32.02;39.92
73750;SHT30;62058;48.406;-4.514;2023-06-26T14:57:45;32.26;38.59
73750;SHT30;62058;48.406;-4.514;2023-06-26T15:00:11;32.67;38.00
73750;SHT30;62058;48.406;-4.514;2023-06-26T15:02:37;32.89;38.35
73750;SHT30;62058;48.406;-4.514;2023-06-26T15:05:02;32.60;38.61
73750;SHT30;62058;48.406;-4.514;2023-06-26T15:07:31;32.48;37.86
73750;SHT30;62058;48.406;-4.514;2023-06-26T15:09:56;32.36;38.73
73750;SHT30;62058;48.406;-4.514;2023-06-26T15:12:21;32.60;38.78
73750;SHT30;62058;48.406;-4.514;2023-06-26T15:14:48;32.69;39.11
73750;SHT30;62058;48.406;-4.514;2023-06-26T15:17:14;32.76;39.23
73750;SHT30;62058;48.406;-4.514;2023-06-26T15:19:39;32.96;39.10
73750;SHT30;62058;48.406;-4.514;2023-06-26T15:22:04;33.10;39.10
73750;SHT30;62058;48.406;-4.514;2023-06-26T15:24:30;33.10;38.67